Time;durP1;ratioP1;P1;durP2;ratioP2;P2;SDS_P1;SDS_P2;PMS_P1;PMS_P2;Temp;Humidity;BMP_temperature;BMP_pressure;BME280_temperature;BME280_humidity;BME280_pressure;Samples;Min_cycle;Max_cycle;Signal;HPM_P1;HPM_P2
2021/05/22 00:00:46;;;;;;;5.05;3.05;;;19.00;53.60;;;;;;6160527;23;20151;-81
2021/05/22 00:03:12;;;;;;;4.70;2.83;;;19.00;53.60;;;;;;6187470;23;20166;-82
2021/05/22 00:05:37;;;;;;;5.20;3.20;;;19.00;53.50;;;;;;6186957;23;20135;-80
2021/05/22 00:08:04;;;;;;;3.85;3.22;;;19.00;53.50;;;;;;6160702;23;20138;-80
2021/05/22 00:10:29;;;;;;;3.50;3.00;;;19.00;53.50;;;;;;6186830;23;20619;-82
2021/05/22 00:12:55;;;;;;;4.07;3.17;;;19.00;53.50;;;;;;6160795;23;20162;-80
2021/05/22 00:15:21;;;;;;;4.53;3.50;;;19.00;53.60;;;;;;6187530;23;20150;-81
2021/05/22 00:17:47;;;;;;;3.83;3.20;;;19.00;53.50;;;;;;6186911;23;20579;-83
2021/05/22 00:20:13;;;;;;;3.85;3.17;;;19.00;53.50;;;;;;6160528;23;20150;-81
2021/05/22 00:22:41;;;;;;;3.60;2.97;;;19.00;53.60;;;;;;6136184;23;20146;-79
2021/05/22 00:25:08;;;;;;;3.53;3.15;;;19.00;53.60;;;;;;6186721;23;20131;-80
2021/05/22 00:27:33;;;;;;;3.40;3.10;;;18.90;53.60;;;;;;6160456;23;20139;-83
2021/05/22 00:29:59;;;;;;;4.07;3.08;;;18.90;53.50;;;;;;6187177;23;20217;-79
2021/05/22 00:32:25;;;;;;;3.47;3.03;;;19.00;53.60;;;;;;6187192;23;20143;-79
2021/05/22 00:34:50;;;;;;;3.63;3.20;;;19.00;53.60;;;;;;6186927;23;20139;-80
2021/05/22 00:37:16;;;;;;;4.65;3.03;;;19.00;53.60;;;;;;6186507;23;20467;-78
2021/05/22 00:39:43;;;;;;;3.55;3.05;;;18.90;53.50;;;;;;6186725;23;20131;-78
2021/05/22 00:42:09;;;;;;;3.47;3.10;;;18.90;53.50;;;;;;6186664;23;20249;-81
2021/05/22 00:44:35;;;;;;;4.32;2.95;;;18.90;53.50;;;;;;6186824;23;20508;-79
2021/05/22 00:47:01;;;;;;;3.80;2.80;;;18.90;53.60;;;;;;6160317;23;20162;-81
2021/05/22 00:49:27;;;;;;;3.55;3.05;;;18.90;53.60;;;;;;6186872;23;20135;-81
2021/05/22 00:51:53;;;;;;;5.68;3.30;;;18.90;53.60;;;;;;6160395;23;20236;-79
2021/05/22 00:54:20;;;;;;;4.13;2.97;;;18.90;53.70;;;;;;6161002;23;20139;-80
2021/05/22 00:56:47;;;;;;;3.45;3.13;;;18.90;53.60;;;;;;6186880;23;20210;-82
2021/05/22 00:59:15;;;;;;;3.85;2.97;;;18.90;53.70;;;;;;6186646;23;20597;-80
2021/05/22 01:01:43;;;;;;;3.67;3.10;;;18.90;53.60;;;;;;6186540;23;20154;-83
2021/05/22 01:04:10;;;;;;;3.60;3.17;;;18.90;54.40;;;;;;6136195;23;20167;-80
2021/05/22 01:06:40;;;;;;;5.82;3.00;;;18.90;53.60;;;;;;6111030;23;20142;-78
2021/05/22 01:09:15;;;;;;;4.13;3.33;;;18.90;53.50;;;;;;6160103;23;20533;-84
2021/05/22 01:11:54;;;;;;;3.20;2.90;;;18.90;53.60;;;;;;6186323;23;20173;-82
2021/05/22 01:14:31;;;;;;;3.30;3.00;;;18.90;53.60;;;;;;6160063;23;20216;-81
2021/05/22 01:16:58;;;;;;;4.55;3.42;;;18.90;53.70;;;;;;6135422;23;20158;-81
2021/05/22 01:19:39;;;;;;;3.70;3.30;;;18.90;53.70;;;;;;6159955;23;20131;-82
2021/05/22 01:22:06;;;;;;;3.63;2.90;;;18.90;53.70;;;;;;6186109;23;20131;-80
2021/05/22 01:24:34;;;;;;;4.38;3.08;;;18.90;53.60;;;;;;6159818;23;20162;-80
2021/05/22 01:27:01;;;;;;;4.38;3.15;;;18.90;53.70;;;;;;6186717;23;20131;-80
2021/05/22 01:29:28;;;;;;;3.30;2.83;;;18.90;53.60;;;;;;6186111;23;20134;-80
2021/05/22 01:31:54;;;;;;;3.47;3.00;;;18.90;53.70;;;;;;6159761;23;20163;-80
2021/05/22 01:34:20;;;;;;;3.80;3.15;;;18.80;53.60;;;;;;6186490;23;20138;-79
2021/05/22 01:36:57;;;;;;;3.42;2.90;;;18.80;53.60;;;;;;6134936;23;20143;-77
2021/05/22 01:39:24;;;;;;;5.40;3.03;;;18.80;53.70;;;;;;6186840;23;20177;-83
2021/05/22 01:41:50;;;;;;;3.17;2.88;;;18.80;53.60;;;;;;6159332;23;20222;-79
2021/05/22 01:44:15;;;;;;;3.60;3.08;;;18.90;53.60;;;;;;6159676;23;20579;-81
2021/05/22 01:46:42;;;;;;;3.35;3.05;;;18.80;53.70;;;;;;6159990;23;20625;-80
2021/05/22 01:49:10;;;;;;;3.90;3.40;;;18.80;53.70;;;;;;6159489;23;20177;-81
2021/05/22 01:51:36;;;;;;;4.68;3.53;;;18.80;53.70;;;;;;6159796;23;20224;-81
2021/05/22 01:54:03;;;;;;;3.33;3.00;;;18.90;53.90;;;;;;6159777;23;20150;-80
2021/05/22 01:56:30;;;;;;;3.15;2.85;;;18.80;53.80;;;;;;6159545;23;20142;-81
2021/05/22 01:58:57;;;;;;;4.03;3.20;;;18.80;53.90;;;;;;6159967;23;20623;-80
2021/05/22 02:01:25;;;;;;;3.35;3.05;;;18.80;53.80;;;;;;6160079;23;20135;-83
2021/05/22 02:03:51;;;;;;;4.22;3.47;;;18.80;53.90;;;;;;6160424;23;20131;-82
2021/05/22 02:06:24;;;;;;;3.60;3.30;;;18.80;53.70;;;;;;6160004;23;20575;-79
2021/05/22 02:08:53;;;;;;;4.38;3.05;;;18.80;53.80;;;;;;6159922;23;20150;-78
2021/05/22 02:11:29;;;;;;;3.22;2.92;;;18.80;53.70;;;;;;6159522;23;20159;-83
2021/05/22 02:13:56;;;;;;;5.53;3.15;;;18.80;53.80;;;;;;6160028;23;20134;-82
2021/05/22 02:16:27;;;;;;;4.20;3.22;;;18.80;53.80;;;;;;6185652;23;20139;-84
2021/05/22 02:18:55;;;;;;;4.13;3.30;;;18.80;53.80;;;;;;6159675;23;20138;-82
2021/05/22 02:21:30;;;;;;;3.92;3.38;;;18.80;53.80;;;;;;6159989;23;20135;-78
2021/05/22 02:23:57;;;;;;;3.80;3.03;;;18.80;53.80;;;;;;6159280;23;20137;-81
2021/05/22 02:26:25;;;;;;;5.07;3.08;;;18.80;53.90;;;;;;6185959;23;20139;-83
2021/05/22 02:28:52;;;;;;;3.67;3.20;;;18.80;54.00;;;;;;6186004;23;20138;-82
2021/05/22 02:31:24;;;;;;;4.05;3.20;;;18.80;54.00;;;;;;6159439;23;20265;-78
2021/05/22 02:34:00;;;;;;;4.22;3.35;;;18.80;54.00;;;;;;6185947;23;20143;-79
2021/05/22 02:36:26;;;;;;;4.07;3.20;;;18.70;54.60;;;;;;6160283;23;20135;-81
2021/05/22 02:38:53;;;;;;;5.10;3.20;;;18.80;53.90;;;;;;6162111;23;20157;-79
2021/05/22 02:41:19;;;;;;;4.30;3.10;;;18.80;53.90;;;;;;6187736;23;20209;-79
2021/05/22 02:43:55;;;;;;;3.40;3.00;;;18.80;53.80;;;;;;6137443;23;20154;-79
2021/05/22 02:46:22;;;;;;;3.95;3.28;;;18.80;54.00;;;;;;6187899;23;20295;-78
2021/05/22 02:48:51;;;;;;;3.38;3.08;;;18.80;54.00;;;;;;6161832;23;20139;-79
2021/05/22 02:51:19;;;;;;;3.40;3.10;;;18.80;53.80;;;;;;6164048;23;20162;-80
2021/05/22 02:53:46;;;;;;;4.45;3.50;;;18.80;54.10;;;;;;6188392;23;20170;-79
2021/05/22 02:56:12;;;;;;;3.60;3.30;;;18.70;53.90;;;;;;6164350;23;20131;-78
2021/05/22 02:58:47;;;;;;;5.22;3.08;;;18.80;53.90;;;;;;6163219;23;20686;-80
2021/05/22 03:01:22;;;;;;;6.25;3.45;;;18.80;53.90;;;;;;6139259;23;20146;-80
2021/05/22 03:03:50;;;;;;;3.97;3.17;;;18.70;54.00;;;;;;6138023;23;20193;-78
2021/05/22 03:06:16;;;;;;;4.32;3.22;;;18.70;53.90;;;;;;6163565;23;20135;-80
2021/05/22 03:09:01;;;;;;;3.55;3.15;;;18.80;54.00;;;;;;6162595;23;20139;-78
2021/05/22 03:11:28;;;;;;;3.97;3.13;;;18.70;53.90;;;;;;6184652;23;20198;-81
2021/05/22 03:13:54;;;;;;;4.53;3.40;;;18.70;53.90;;;;;;6188267;23;20235;-84
2021/05/22 03:16:20;;;;;;;3.58;3.20;;;18.80;54.00;;;;;;6187770;23;20139;-80
2021/05/22 03:18:47;;;;;;;4.03;3.17;;;18.70;53.90;;;;;;6187803;23;20675;-80
2021/05/22 03:21:14;;;;;;;4.82;3.30;;;18.80;53.90;;;;;;6188067;23;20165;-81
2021/05/22 03:23:48;;;;;;;3.58;3.22;;;18.70;53.90;;;;;;6187784;23;20567;-81
2021/05/22 03:26:14;;;;;;;3.53;3.00;;;18.80;53.90;;;;;;6187769;23;20213;-80
2021/05/22 03:28:41;;;;;;;4.18;3.10;;;18.70;54.00;;;;;;6187690;23;20614;-81
2021/05/22 03:31:07;;;;;;;3.85;3.33;;;18.70;53.90;;;;;;6187581;23;20246;-82
2021/05/22 03:33:34;;;;;;;4.40;3.40;;;18.70;54.60;;;;;;6187840;23;20139;-79
2021/05/22 03:36:00;;;;;;;4.53;3.17;;;18.70;54.00;;;;;;6161425;23;20514;-79
2021/05/22 03:38:27;;;;;;;4.88;3.10;;;18.70;53.80;;;;;;6187544;23;20135;-80
2021/05/22 03:40:52;;;;;;;3.83;3.42;;;18.70;53.90;;;;;;6187633;23;20182;-79
2021/05/22 03:43:19;;;;;;;3.65;3.30;;;18.70;53.90;;;;;;6161386;23;20143;-80
2021/05/22 03:45:45;;;;;;;4.03;3.28;;;18.70;54.00;;;;;;6187492;23;20135;-80
2021/05/22 03:48:11;;;;;;;4.50;3.30;;;18.70;54.00;;;;;;6136287;23;20215;-81
2021/05/22 03:50:45;;;;;;;5.38;3.28;;;18.70;53.90;;;;;;6187289;23;20170;-78
2021/05/22 03:53:11;;;;;;;4.43;3.30;;;18.70;53.90;;;;;;6187451;23;20217;-81
2021/05/22 03:55:37;;;;;;;4.50;3.08;;;18.70;53.90;;;;;;6161002;23;20165;-80
2021/05/22 03:58:03;;;;;;;5.47;3.28;;;18.70;53.90;;;;;;6187404;23;20509;-81
2021/05/22 04:00:38;;;;;;;4.32;3.25;;;18.70;53.80;;;;;;6161224;23;20143;-82
2021/05/22 04:03:06;;;;;;;3.88;3.47;;;18.70;54.00;;;;;;6187345;23;20245;-79
2021/05/22 04:05:33;;;;;;;4.97;3.40;;;18.70;53.90;;;;;;6187211;23;20162;-78
2021/05/22 04:08:06;;;;;;;3.50;3.20;;;18.70;54.00;;;;;;6187585;23;20139;-80
2021/05/22 04:10:40;;;;;;;5.32;2.95;;;18.70;54.10;;;;;;6187478;23;20163;-80
2021/05/22 04:13:08;;;;;;;3.90;3.20;;;18.70;54.00;;;;;;6187389;23;20173;-78
2021/05/22 04:15:35;;;;;;;3.45;3.15;;;18.70;54.10;;;;;;6136923;23;20135;-80
2021/05/22 04:18:01;;;;;;;3.92;3.40;;;18.70;54.00;;;;;;6187131;23;20135;-77
2021/05/22 04:20:28;;;;;;;3.50;3.20;;;18.70;54.00;;;;;;6160956;23;20135;-84
2021/05/22 04:22:54;;;;;;;3.42;3.08;;;18.70;54.10;;;;;;6187264;23;20139;-79
2021/05/22 04:25:21;;;;;;;3.85;3.08;;;18.70;54.10;;;;;;6187032;23;20135;-79
2021/05/22 04:27:48;;;;;;;3.50;3.00;;;18.70;54.10;;;;;;6187185;23;20131;-83
2021/05/22 04:30:16;;;;;;;3.33;3.03;;;18.70;54.10;;;;;;6187168;23;20197;-81
2021/05/22 04:32:50;;;;;;;4.10;2.83;;;18.70;54.00;;;;;;6187562;23;20193;-79
2021/05/22 04:35:17;;;;;;;3.78;3.10;;;18.70;54.10;;;;;;6161158;23;20161;-82
2021/05/22 04:37:45;;;;;;;3.53;3.10;;;18.70;53.90;;;;;;6161184;23;20135;-80
2021/05/22 04:40:12;;;;;;;3.53;3.22;;;18.70;53.90;;;;;;6160749;23;20146;-81
2021/05/22 04:42:39;;;;;;;4.22;3.30;;;18.70;54.00;;;;;;6186405;23;20248;-82
2021/05/22 04:45:07;;;;;;;3.40;3.00;;;18.70;54.00;;;;;;6186802;23;20563;-79
2021/05/22 04:47:35;;;;;;;3.50;3.20;;;18.70;54.10;;;;;;6160582;23;20219;-82
2021/05/22 04:50:02;;;;;;;3.30;3.00;;;18.70;54.10;;;;;;6186820;23;20243;-81
2021/05/22 04:52:29;;;;;;;3.50;3.20;;;18.70;54.10;;;;;;6160362;23;20593;-80
2021/05/22 04:54:55;;;;;;;3.83;3.42;;;18.70;54.70;;;;;;6186832;23;20131;-82
2021/05/22 04:57:21;;;;;;;3.92;3.42;;;18.70;54.10;;;;;;6186763;23;20233;-81
2021/05/22 04:59:48;;;;;;;4.35;3.30;;;18.70;54.10;;;;;;6186319;23;20166;-80
2021/05/22 05:02:14;;;;;;;4.93;3.38;;;18.70;54.10;;;;;;6189594;23;20145;-78
2021/05/22 05:04:40;;;;;;;3.53;3.22;;;18.70;54.10;;;;;;6162045;23;20158;-82
2021/05/22 05:07:07;;;;;;;3.70;3.30;;;18.60;54.10;;;;;;6187077;23;20155;-79
2021/05/22 05:09:36;;;;;;;4.30;3.10;;;18.70;54.10;;;;;;6160679;23;20134;-79
2021/05/22 05:12:03;;;;;;;4.95;3.20;;;18.60;54.10;;;;;;6160689;23;20237;-82
2021/05/22 05:14:30;;;;;;;3.72;3.25;;;18.70;54.10;;;;;;6186573;23;20158;-82
2021/05/22 05:16:55;;;;;;;4.10;3.10;;;18.70;54.30;;;;;;6160709;23;20168;-81
2021/05/22 05:19:24;;;;;;;4.13;3.10;;;18.60;54.20;;;;;;6135669;23;20561;-83
2021/05/22 05:21:51;;;;;;;3.33;3.03;;;18.60;54.20;;;;;;6186350;23;20135;-79
2021/05/22 05:24:26;;;;;;;3.65;3.30;;;18.60;54.20;;;;;;6160262;23;20135;-79
2021/05/22 05:26:52;;;;;;;4.38;3.17;;;18.60;54.30;;;;;;6186179;23;20131;-79
2021/05/22 05:29:18;;;;;;;3.97;3.28;;;18.60;55.00;;;;;;6186467;23;20148;-82
2021/05/22 05:31:45;;;;;;;3.47;3.17;;;18.60;54.30;;;;;;6186253;23;20167;-79
2021/05/22 05:34:11;;;;;;;3.92;3.45;;;18.60;54.30;;;;;;6186090;23;20166;-80
2021/05/22 05:36:45;;;;;;;3.55;2.90;;;18.60;54.10;;;;;;6186523;23;20139;-81
2021/05/22 05:39:12;;;;;;;2.88;2.67;;;18.60;54.20;;;;;;6187377;23;20131;-79
2021/05/22 05:41:38;;;;;;;3.88;3.00;;;18.60;54.30;;;;;;6160723;23;20654;-79
2021/05/22 05:44:05;;;;;;;4.10;3.30;;;18.60;54.30;;;;;;6161070;23;20147;-83
2021/05/22 05:46:31;;;;;;;4.05;3.25;;;18.60;54.20;;;;;;6186973;23;20618;-83
2021/05/22 05:48:58;;;;;;;3.20;2.90;;;18.60;54.20;;;;;;6186453;23;20131;-81
2021/05/22 05:51:24;;;;;;;5.25;3.47;;;18.60;54.20;;;;;;6186689;23;20162;-81
2021/05/22 05:53:59;;;;;;;3.70;3.25;;;18.60;54.30;;;;;;6186234;23;20142;-79
2021/05/22 05:56:25;;;;;;;4.20;3.42;;;18.60;54.10;;;;;;6186222;23;20130;-80
2021/05/22 05:58:51;;;;;;;3.25;2.88;;;18.60;54.20;;;;;;6186317;23;20158;-81
2021/05/22 06:01:18;;;;;;;3.50;3.20;;;18.70;54.20;;;;;;6186382;23;20135;-80
2021/05/22 06:03:45;;;;;;;4.38;3.00;;;18.60;54.20;;;;;;6186496;23;20209;-81
2021/05/22 06:06:11;;;;;;;3.70;3.20;;;18.60;54.20;;;;;;6186565;23;20138;-82
2021/05/22 06:08:37;;;;;;;4.65;3.00;;;18.60;54.30;;;;;;6187013;23;20138;-80
2021/05/22 06:11:06;;;;;;;3.20;2.90;;;18.60;54.20;;;;;;6186513;23;20159;-78
2021/05/22 06:13:34;;;;;;;3.35;2.92;;;18.60;54.20;;;;;;6161277;23;20563;-83
2021/05/22 06:18:38;;;;;;;3.53;3.00;;;18.60;54.30;;;;;;6187907;23;20139;-79
2021/05/22 06:21:04;;;;;;;3.53;3.22;;;18.60;54.20;;;;;;6138035;23;20139;-81
2021/05/22 06:23:30;;;;;;;3.50;3.13;;;18.60;54.30;;;;;;6136739;23;20581;-78
2021/05/22 06:25:56;;;;;;;3.38;2.90;;;18.60;54.40;;;;;;6186721;23;20135;-83
2021/05/22 06:28:21;;;;;;;3.28;2.97;;;18.60;54.40;;;;;;6160292;23;20131;-83
2021/05/22 06:30:47;;;;;;;3.63;3.03;;;18.60;54.40;;;;;;6188063;23;20249;-79
2021/05/22 06:33:14;;;;;;;3.65;2.97;;;18.60;54.40;;;;;;6187622;23;20139;-80
2021/05/22 06:35:41;;;;;;;5.35;3.22;;;18.60;55.10;;;;;;6135653;23;20143;-79
2021/05/22 06:38:07;;;;;;;3.30;3.00;;;18.60;54.50;;;;;;6186333;23;20490;-81
2021/05/22 06:40:32;;;;;;;3.40;2.95;;;18.60;54.50;;;;;;6186222;23;20197;-80
2021/05/22 06:42:58;;;;;;;3.42;3.05;;;18.60;54.40;;;;;;6186251;23;20230;-79
2021/05/22 06:45:26;;;;;;;3.30;3.00;;;18.60;54.50;;;;;;6185982;23;20127;-82
2021/05/22 06:47:52;;;;;;;3.22;2.92;;;18.60;54.40;;;;;;6159999;23;20165;-84
2021/05/22 06:50:19;;;;;;;3.75;3.15;;;18.60;54.50;;;;;;6186273;23;20162;-81
2021/05/22 06:52:44;;;;;;;4.18;3.05;;;18.60;54.50;;;;;;6186513;23;20143;-81
2021/05/22 06:55:10;;;;;;;3.22;2.92;;;18.60;54.50;;;;;;6160144;23;20193;-80
2021/05/22 06:57:37;;;;;;;3.88;3.30;;;18.60;54.50;;;;;;6186160;23;20138;-80
2021/05/22 07:00:05;;;;;;;3.90;3.20;;;18.50;54.40;;;;;;6186366;23;20135;-79
2021/05/22 07:02:31;;;;;;;3.63;3.30;;;18.50;54.40;;;;;;6186919;23;20147;-78
2021/05/22 07:04:57;;;;;;;5.07;3.20;;;18.50;54.40;;;;;;6160335;23;20151;-83
2021/05/22 07:07:22;;;;;;;3.45;3.03;;;18.50;54.50;;;;;;6185930;23;20159;-80
2021/05/22 07:09:48;;;;;;;3.95;3.10;;;18.50;54.50;;;;;;6159739;23;20549;-84
2021/05/22 07:12:14;;;;;;;3.70;3.13;;;18.60;54.40;;;;;;6186032;23;20173;-81
2021/05/22 07:14:41;;;;;;;3.28;2.97;;;18.60;54.40;;;;;;6159536;23;20157;-80
2021/05/22 07:17:07;;;;;;;3.35;3.03;;;18.60;54.40;;;;;;6186110;23;20146;-82
2021/05/22 07:19:35;;;;;;;3.33;2.97;;;18.60;54.50;;;;;;6160220;23;20155;-81
2021/05/22 07:22:00;;;;;;;5.18;3.00;;;18.60;54.50;;;;;;6186210;23;20139;-81
2021/05/22 07:24:27;;;;;;;4.47;3.20;;;18.50;54.40;;;;;;6112829;23;20258;-80
2021/05/22 07:26:52;;;;;;;4.75;3.17;;;18.60;54.40;;;;;;6188061;23;20162;-84
2021/05/22 07:29:18;;;;;;;3.35;3.00;;;18.60;54.40;;;;;;6161770;23;20135;-82
2021/05/22 07:31:45;;;;;;;4.55;3.25;;;18.60;54.50;;;;;;6139327;23;20226;-80
2021/05/22 07:34:11;;;;;;;3.97;3.10;;;18.60;54.50;;;;;;6163551;23;20151;-82
2021/05/22 07:36:37;;;;;;;3.63;3.17;;;18.60;54.50;;;;;;6136181;23;20147;-83
2021/05/22 07:39:04;;;;;;;4.00;3.00;;;18.60;54.40;;;;;;6161129;23;20162;-82
2021/05/22 07:41:29;;;;;;;3.92;3.50;;;18.60;54.40;;;;;;6186736;23;20686;-83
2021/05/22 07:43:56;;;;;;;3.60;3.00;;;18.60;54.30;;;;;;6160596;23;20182;-83
2021/05/22 07:46:22;;;;;;;4.50;3.10;;;18.60;54.40;;;;;;6160645;23;20559;-83
2021/05/22 07:48:48;;;;;;;4.00;3.05;;;18.60;54.40;;;;;;6160867;23;20211;-82
2021/05/22 07:51:15;;;;;;;3.75;3.13;;;18.60;54.40;;;;;;6161036;23;20466;-82
2021/05/22 07:53:41;;;;;;;3.63;2.90;;;18.60;54.40;;;;;;6136336;23;20151;-83
2021/05/22 07:56:07;;;;;;;3.60;3.10;;;18.60;54.40;;;;;;6185959;23;20142;-82
2021/05/22 07:58:33;;;;;;;4.28;3.05;;;18.60;54.40;;;;;;6187253;23;20214;-83
2021/05/22 08:01:00;;;;;;;3.50;3.20;;;18.60;54.30;;;;;;6135539;23;20576;-83
2021/05/22 08:03:26;;;;;;;3.38;2.97;;;18.60;54.40;;;;;;6160210;23;20135;-82
2021/05/22 08:05:56;;;;;;;4.10;3.20;;;18.60;54.30;;;;;;6186608;23;20131;-82
2021/05/22 08:08:22;;;;;;;3.67;2.90;;;18.60;54.30;;;;;;6162210;23;20182;-83
2021/05/22 08:10:48;;;;;;;3.13;2.83;;;18.60;54.30;;;;;;6189231;23;20185;-83
2021/05/22 08:13:16;;;;;;;3.20;2.80;;;18.60;54.30;;;;;;6114535;23;20139;-83
2021/05/22 08:15:42;;;;;;;3.53;3.10;;;18.60;54.30;;;;;;6162476;23;20139;-83
2021/05/22 08:18:08;;;;;;;3.38;3.05;;;18.60;54.30;;;;;;6187405;23;20131;-82
2021/05/22 08:20:33;;;;;;;4.30;3.05;;;18.60;54.30;;;;;;6136335;23;20163;-82
2021/05/22 08:22:59;;;;;;;3.88;3.20;;;18.60;54.40;;;;;;6135661;23;20131;-82
2021/05/22 08:25:25;;;;;;;3.67;3.00;;;18.60;54.40;;;;;;6136341;23;20281;-82
2021/05/22 08:27:53;;;;;;;3.58;3.05;;;18.60;54.30;;;;;;6135889;23;20177;-83
2021/05/22 08:30:20;;;;;;;3.30;3.00;;;18.60;54.30;;;;;;6136858;23;20214;-82
2021/05/22 08:32:47;;;;;;;4.13;3.20;;;18.60;54.40;;;;;;6160925;23;20559;-82
2021/05/22 08:35:13;;;;;;;3.28;2.97;;;18.60;54.30;;;;;;6160954;23;20127;-82
2021/05/22 08:37:40;;;;;;;3.38;2.90;;;18.60;54.30;;;;;;6142501;23;20131;-83
2021/05/22 08:40:07;;;;;;;4.00;3.17;;;18.60;54.30;;;;;;6168355;23;20463;-83
2021/05/22 08:42:33;;;;;;;3.30;3.00;;;18.60;54.30;;;;;;6139771;23;20187;-82
2021/05/22 08:45:07;;;;;;;3.28;2.92;;;18.70;54.40;;;;;;6115610;23;20167;-82
2021/05/22 08:47:34;;;;;;;3.20;2.80;;;18.70;54.20;;;;;;6115591;23;20150;-82
2021/05/22 08:50:01;;;;;;;3.97;2.90;;;18.70;54.20;;;;;;6136920;23;20139;-83
2021/05/22 08:52:28;;;;;;;3.85;3.20;;;18.70;54.20;;;;;;6138111;23;20795;-84
2021/05/22 08:54:54;;;;;;;3.30;3.00;;;18.70;54.30;;;;;;6138867;23;20151;-83
2021/05/22 08:57:19;;;;;;;3.40;3.08;;;18.70;54.20;;;;;;6112794;23;20174;-83
2021/05/22 08:59:47;;;;;;;3.78;2.92;;;18.80;54.00;;;;;;6114708;23;20148;-83
2021/05/22 09:02:19;;;;;;;4.28;2.97;;;18.70;54.00;;;;;;6137502;23;20512;-82
2021/05/22 09:05:06;;;;;;;3.10;2.80;;;18.70;53.90;;;;;;6137804;23;20132;-83
2021/05/22 09:07:32;;;;;;;3.72;2.90;;;18.80;54.00;;;;;;6136203;23;20144;-82
2021/05/22 09:10:11;;;;;;;3.05;2.75;;;18.80;53.90;;;;;;6137347;23;20635;-82
2021/05/22 09:12:41;;;;;;;3.45;2.90;;;18.80;53.90;;;;;;6140352;23;20136;-84
2021/05/22 09:15:18;;;;;;;3.53;2.90;;;18.80;53.90;;;;;;6139207;23;20154;-82
2021/05/22 09:17:48;;;;;;;4.03;3.10;;;18.80;54.00;;;;;;6140710;23;20158;-83
2021/05/22 09:20:18;;;;;;;3.15;2.83;;;18.70;53.90;;;;;;6141372;23;20445;-83
2021/05/22 09:22:54;;;;;;;3.58;2.75;;;18.80;54.00;;;;;;6137752;23;20214;-82
2021/05/22 09:25:24;;;;;;;3.70;2.97;;;18.80;53.90;;;;;;6139792;23;20529;-84
2021/05/22 09:27:51;;;;;;;3.30;2.90;;;18.80;53.80;;;;;;6167259;23;20124;-83
2021/05/22 09:30:19;;;;;;;4.55;3.20;;;18.80;53.90;;;;;;6140133;23;20159;-84
2021/05/22 09:32:46;;;;;;;4.03;3.05;;;18.80;53.90;;;;;;6140744;23;20167;-83
2021/05/22 09:35:16;;;;;;;3.03;2.72;;;18.80;54.00;;;;;;6138949;23;20564;-83
2021/05/22 09:37:58;;;;;;;3.10;2.80;;;18.80;54.00;;;;;;6140960;23;20216;-83
2021/05/22 09:40:29;;;;;;;4.15;2.70;;;18.80;54.00;;;;;;6115202;23;20214;-83
2021/05/22 09:42:57;;;;;;;5.38;2.92;;;18.80;54.00;;;;;;6111885;23;20178;-83
2021/05/22 09:45:34;;;;;;;3.17;2.70;;;18.80;54.10;;;;;;6112225;23;20135;-84
2021/05/22 09:48:09;;;;;;;4.43;2.97;;;18.80;54.00;;;;;;6136947;23;20197;-84
2021/05/22 09:50:39;;;;;;;4.70;2.90;;;18.80;54.00;;;;;;6135747;23;20185;-83
2021/05/22 09:53:24;;;;;;;3.00;2.70;;;18.80;54.00;;;;;;6113846;23;20468;-84
2021/05/22 09:56:14;;;;;;;3.78;3.10;;;18.80;54.00;;;;;;6135098;23;20147;-84
2021/05/22 09:58:41;;;;;;;5.47;3.10;;;18.80;54.00;;;;;;6163552;23;20128;-83
2021/05/22 10:01:08;;;;;;;3.72;3.00;;;18.80;54.10;;;;;;6137497;23;20143;-84
2021/05/22 10:03:34;;;;;;;3.75;2.88;;;18.80;54.10;;;;;;6092008;23;20151;-84
2021/05/22 10:06:00;;;;;;;3.88;2.85;;;18.80;54.10;;;;;;6132297;23;20135;-83
2021/05/22 10:08:25;;;;;;;4.70;3.00;;;18.80;54.10;;;;;;6163431;23;20127;-83
2021/05/22 10:10:55;;;;;;;5.20;3.42;;;18.80;54.00;;;;;;6139022;23;20603;-84
2021/05/22 10:13:22;;;;;;;3.22;2.92;;;18.80;54.10;;;;;;6116181;23;20131;-84
2021/05/22 10:15:52;;;;;;;5.65;3.10;;;18.80;54.10;;;;;;6139093;23;20150;-83
2021/05/22 10:18:18;;;;;;;3.58;2.83;;;18.80;54.00;;;;;;6090881;23;20147;-83
2021/05/22 10:20:44;;;;;;;2.90;2.60;;;18.80;54.00;;;;;;6113255;23;20187;-84
2021/05/22 10:23:10;;;;;;;3.17;2.88;;;18.80;54.00;;;;;;6137414;23;20124;-84
2021/05/22 10:25:36;;;;;;;4.85;3.22;;;18.80;54.10;;;;;;6112522;23;20147;-83
2021/05/22 10:28:05;;;;;;;4.43;3.15;;;18.80;54.20;;;;;;6163030;23;20166;-84
2021/05/22 10:30:31;;;;;;;4.38;3.20;;;18.80;54.20;;;;;;6112080;23;20171;-83
2021/05/22 10:33:04;;;;;;;3.55;3.15;;;18.80;54.10;;;;;;6109573;23;20568;-83
2021/05/22 10:35:43;;;;;;;3.20;2.90;;;18.80;54.00;;;;;;6108939;23;20215;-83
2021/05/22 10:38:09;;;;;;;4.55;3.03;;;18.80;54.00;;;;;;6160263;23;20196;-83
2021/05/22 10:40:46;;;;;;;3.92;2.90;;;18.80;54.10;;;;;;6161044;23;20135;-84
2021/05/22 10:43:11;;;;;;;3.78;2.88;;;18.80;54.10;;;;;;6188453;23;20579;-83
2021/05/22 10:45:39;;;;;;;3.70;3.00;;;18.90;54.10;;;;;;6161693;23;20181;-86
2021/05/22 10:48:07;;;;;;;3.33;2.88;;;18.80;54.10;;;;;;6113933;23;20143;-83
2021/05/22 10:50:43;;;;;;;3.47;2.97;;;18.80;54.10;;;;;;6189209;23;20166;-83
2021/05/22 10:53:20;;;;;;;3.60;2.95;;;18.90;54.20;;;;;;6164988;23;20502;-84
2021/05/22 10:56:01;;;;;;;3.30;2.85;;;18.80;54.10;;;;;;6160773;23;20543;-82
2021/05/22 10:58:28;;;;;;;3.70;3.10;;;18.90;54.20;;;;;;6143196;23;20159;-84
2021/05/22 11:01:35;;;;;;;4.15;2.80;;;18.80;54.10;;;;;;6166289;23;20139;-83
2021/05/22 11:04:17;;;;;;;6.25;3.10;;;18.80;54.10;;;;;;6187119;23;20177;-85
2021/05/22 11:06:53;;;;;;;5.07;2.95;;;18.90;54.20;;;;;;6165349;23;20173;-85
2021/05/22 11:09:27;;;;;;;10.10;3.58;;;18.90;54.20;;;;;;6191925;23;20158;-84
2021/05/22 11:11:54;;;;;;;7.18;2.95;;;18.90;54.20;;;;;;6163500;23;20173;-83
2021/05/22 11:14:35;;;;;;;4.93;3.33;;;18.90;54.30;;;;;;6140042;23;20508;-84
2021/05/22 11:17:22;;;;;;;5.65;3.42;;;18.90;54.20;;;;;;6190027;23;20135;-83
2021/05/22 11:19:57;;;;;;;5.93;2.92;;;18.90;54.20;;;;;;6070769;23;20153;-84
2021/05/22 11:22:30;;;;;;;6.53;2.92;;;18.90;54.30;;;;;;6046100;23;20212;-84
2021/05/22 11:25:17;;;;;;;5.75;3.38;;;18.90;54.30;;;;;;6069816;23;20153;-83
2021/05/22 11:27:52;;;;;;;3.92;2.67;;;18.90;54.50;;;;;;6046686;23;20229;-85
2021/05/22 11:30:27;;;;;;;4.20;3.03;;;18.80;54.40;;;;;;6070823;23;20177;-84
2021/05/22 11:33:05;;;;;;;4.03;3.00;;;18.90;54.40;;;;;;6070708;23;20145;-84
2021/05/22 11:35:35;;;;;;;4.80;2.95;;;18.80;54.40;;;;;;6071242;23;20216;-84
2021/05/22 11:38:13;;;;;;;4.35;3.08;;;18.80;54.30;;;;;;6047788;23;20153;-84
2021/05/22 11:40:39;;;;;;;4.55;3.00;;;18.80;54.40;;;;;;6045139;23;20153;-84
2021/05/22 11:43:20;;;;;;;2.97;2.63;;;18.80;54.30;;;;;;6042510;23;20167;-83
2021/05/22 11:45:50;;;;;;;7.35;2.75;;;18.90;54.30;;;;;;6042963;23;20139;-84
2021/05/22 11:48:35;;;;;;;4.63;3.17;;;18.90;54.40;;;;;;6042420;23;20139;-84
2021/05/22 11:51:08;;;;;;;3.47;2.65;;;18.80;54.30;;;;;;6016297;23;20253;-85
2021/05/22 11:53:34;;;;;;;3.88;2.80;;;18.80;54.30;;;;;;6042259;23;20162;-84
2021/05/22 11:56:01;;;;;;;3.20;2.83;;;18.80;54.30;;;;;;6058346;23;20197;-84
2021/05/22 11:58:27;;;;;;;3.40;2.80;;;18.90;54.30;;;;;;6111603;23;20202;-84
2021/05/22 12:00:54;;;;;;;5.53;3.08;;;18.90;54.30;;;;;;6134546;23;20135;-84
2021/05/22 12:03:27;;;;;;;4.20;2.88;;;18.80;54.30;;;;;;6110381;23;20608;-84
2021/05/22 12:05:55;;;;;;;4.32;2.72;;;18.80;54.30;;;;;;6135126;23;20138;-84
2021/05/22 12:08:23;;;;;;;3.67;3.00;;;18.80;54.30;;;;;;6111041;23;20182;-84
2021/05/22 12:10:50;;;;;;;3.78;2.88;;;18.80;54.20;;;;;;6135161;23;20230;-84
2021/05/22 12:13:17;;;;;;;5.70;3.00;;;18.90;54.30;;;;;;6111079;23;20139;-85
2021/05/22 12:15:44;;;;;;;3.10;2.80;;;18.80;54.30;;;;;;6111073;23;20135;-84
2021/05/22 12:18:11;;;;;;;3.30;2.97;;;18.90;54.40;;;;;;6110466;23;20135;-85
2021/05/22 12:20:53;;;;;;;7.28;3.00;;;18.80;54.40;;;;;;6135573;23;20136;-84
2021/05/22 12:23:42;;;;;;;6.75;2.90;;;18.90;54.50;;;;;;6135022;23;20132;-84
2021/05/22 12:26:08;;;;;;;3.72;2.90;;;18.80;54.40;;;;;;6105158;23;20146;-85
2021/05/22 12:28:34;;;;;;;4.30;2.70;;;18.80;54.40;;;;;;6134646;23;20139;-84
2021/05/22 12:31:00;;;;;;;4.70;2.83;;;18.90;54.40;;;;;;6161343;23;20167;-84
2021/05/22 12:33:26;;;;;;;6.32;2.80;;;18.80;54.40;;;;;;6134912;23;20159;-83
2021/05/22 12:36:09;;;;;;;4.38;2.90;;;18.80;54.40;;;;;;6110271;23;20132;-84
2021/05/22 12:38:43;;;;;;;3.38;2.85;;;18.90;54.50;;;;;;6085972;23;20147;-84
2021/05/22 12:41:09;;;;;;;4.85;2.72;;;18.80;54.40;;;;;;6142555;23;20194;-85
2021/05/22 12:43:47;;;;;;;5.32;3.38;;;18.80;54.50;;;;;;6162676;23;20557;-83
2021/05/22 12:46:29;;;;;;;4.68;2.83;;;18.90;54.60;;;;;;6189305;23;20202;-84
2021/05/22 12:49:14;;;;;;;5.63;2.80;;;18.80;54.90;;;;;;6163248;23;20235;-84
2021/05/22 12:51:44;;;;;;;4.85;2.92;;;18.80;54.50;;;;;;6164208;23;20623;-85
2021/05/22 12:54:27;;;;;;;4.40;3.08;;;18.80;54.60;;;;;;6139373;23;20139;-84
2021/05/22 12:57:16;;;;;;;4.18;2.95;;;18.90;54.70;;;;;;6138789;23;20151;-83
2021/05/22 12:59:51;;;;;;;3.65;2.80;;;18.80;54.60;;;;;;6138569;23;20143;-84